WMKN/TGG METAR and TAF weather

Enter ICAO airport designator
Station Type Date Time Source
WMKN METAR 2022/01/25 04:00 UTC NOAA

WMKN 250400Z VRB03KT 9999 FEW020 30/24 Q1011


Station Type Date Time Source
WMKN Decoded METAR 2022/01/25 04:00 UTC NOAA

Station name not available
Jan 24, 2022 - 11:00 PM EST / 2022.01.25 0400 UTC
Wind: Variable at 3 MPH (3 KT):0
Visibility: greater than 7 mile(s):0
Sky conditions: mostly clear
Temperature: 86 F (30 C)
Heat index: 95.0 F (35.0 C):1
Dew Point: 75 F (24 C)
Relative Humidity: 70%
Pressure (altimeter): 29.85 in. Hg (1011 hPa)
ob: WMKN 250400Z VRB03KT 9999 FEW020 30/24 Q1011
cycle: 4

Station Type Date Time Source
WMKN TAF 2022/01/25 06:00 UTC NOAA

TAF WMKN 250500Z 2506/2606 03006KT 9999 FEW018
BECMG 2510/2511 03006KT FEW022

Example: see airport list